Time;durP1;ratioP1;P1;durP2;ratioP2;P2;SDS_P1;SDS_P2;PMS_P1;PMS_P2;Temp;Humidity;BMP_temperature;BMP_pressure;BME280_temperature;BME280_humidity;BME280_pressure;Samples;Min_cycle;Max_cycle;Signal;HPM_P1;HPM_P2
2023/02/13 00:00:22;;;;;;;7.33;2.90;;;;;;;-0.87;64.26;102932.16;4956430;28;20034;-84
2023/02/13 00:02:48;;;;;;;6.18;2.80;;;;;;;-0.68;64.20;102970.50;4941114;28;20056;-83
2023/02/13 00:05:13;;;;;;;5.90;2.87;;;;;;;-0.91;64.45;102947.22;4973958;28;20035;-84
2023/02/13 00:07:39;;;;;;;6.03;2.90;;;;;;;-0.73;64.38;102967.06;4956187;28;20122;-82
2023/02/13 00:10:06;;;;;;;4.93;2.60;;;;;;;-0.74;64.28;102970.63;4943162;28;20022;-85
2023/02/13 00:12:32;;;;;;;5.82;2.58;;;;;;;-0.70;64.10;102976.72;4973677;28;20039;-84
2023/02/13 00:14:59;;;;;;;5.50;2.73;;;;;;;-0.75;64.05;102966.25;4957132;28;20146;-83
2023/02/13 00:17:25;;;;;;;5.57;2.63;;;;;;;-0.67;64.22;102976.66;4940925;28;20300;-83
2023/02/13 00:19:50;;;;;;;5.40;2.38;;;;;;;-0.71;63.93;102970.56;4923405;28;20145;-83
2023/02/13 00:22:16;;;;;;;4.97;2.53;;;;;;;-0.63;63.79;102973.06;4939782;28;20053;-84
2023/02/13 00:24:43;;;;;;;5.17;2.50;;;;;;;-0.63;63.83;102981.00;4972940;28;20039;-85
2023/02/13 00:27:09;;;;;;;5.07;2.28;;;;;;;-0.82;63.94;102954.09;4956159;28;20042;-84
2023/02/13 00:29:36;;;;;;;5.40;2.50;;;;;;;-0.66;63.85;102981.94;4973124;28;20082;-83
2023/02/13 00:32:02;;;;;;;6.32;2.67;;;;;;;-0.73;64.19;102982.91;4955123;28;20038;-83
2023/02/13 00:34:28;;;;;;;4.90;2.60;;;;;;;-0.76;64.24;102983.00;4940563;28;20065;-83
2023/02/13 00:36:53;;;;;;;6.45;2.55;;;;;;;-0.70;64.15;102989.94;4973151;28;20381;-84
2023/02/13 00:39:22;;;;;;;4.93;2.60;;;;;;;-0.72;64.42;102994.38;4956179;28;20392;-83
2023/02/13 00:41:49;;;;;;;5.75;2.30;;;;;;;-0.83;64.09;102978.75;4956235;28;20043;-79
2023/02/13 00:44:16;;;;;;;5.13;2.78;;;;;;;-0.81;64.57;102982.22;4940064;28;20543;-84
2023/02/13 00:46:43;;;;;;;6.90;2.65;;;;;;;-0.70;64.29;102997.88;4954442;28;20039;-83
2023/02/13 00:49:10;;;;;;;4.88;2.35;;;;;;;-0.66;64.10;102994.25;4955602;28;20121;-82
2023/02/13 00:51:35;;;;;;;4.80;2.60;;;;;;;-0.80;64.39;102986.59;4955611;28;20065;-82
2023/02/13 00:54:01;;;;;;;6.33;2.83;;;;;;;-0.79;64.30;102988.34;4936892;29;20123;-82
2023/02/13 00:56:28;;;;;;;5.13;2.73;;;;;;;-0.80;64.75;102993.66;4939497;28;20279;-80
2023/02/13 00:58:53;;;;;;;5.47;2.70;;;;;;;-0.96;64.71;102974.59;4946901;28;20073;-82
2023/02/13 01:01:19;;;;;;;5.00;2.60;;;;;;;-0.87;65.10;102998.19;4964058;28;20054;-81
2023/02/13 01:03:45;;;;;;;5.23;2.50;;;;;;;-0.77;64.93;103001.50;4940221;28;20270;-82
2023/02/13 01:06:11;;;;;;;5.88;3.00;;;;;;;-0.85;64.91;102994.59;4970118;28;20065;-84
2023/02/13 01:08:41;;;;;;;5.37;2.83;;;;;;;-0.91;64.98;102992.09;4951252;28;20031;-83
2023/02/13 01:11:07;;;;;;;4.95;2.55;;;;;;;-0.88;65.10;102988.53;4973288;28;20026;-84
2023/02/13 01:13:33;;;;;;;4.90;2.60;;;;;;;-0.84;64.83;103000.78;4972789;28;20065;-84
2023/02/13 01:15:59;;;;;;;;;;;;;;;-0.94;65.21;102999.19;4974107;28;20067;-84
2023/02/13 01:18:25;;;;;;;;;;;;;;;-1.06;65.52;102997.66;4958449;28;19925;-82
2023/02/13 01:21:05;;;;;;;4.65;2.35;;;;;;;-1.29;66.21;102987.53;4950692;28;19938;-81
2023/02/13 01:23:36;;;;;;;5.80;2.50;;;;;;;-1.26;66.48;102992.78;4966282;28;20069;-84
2023/02/13 01:26:07;;;;;;;4.85;2.30;;;;;;;-1.28;66.39;102987.50;4953037;28;20148;-83
2023/02/13 01:28:33;;;;;;;6.78;2.85;;;;;;;-1.36;66.68;102991.16;4963641;28;20132;-82
2023/02/13 01:30:59;;;;;;;5.90;2.80;;;;;;;-1.44;66.83;102977.25;4940509;28;20487;-83
2023/02/13 01:33:29;;;;;;;5.30;2.47;;;;;;;-1.45;66.82;102972.84;4961681;28;20043;-83
2023/02/13 01:35:59;;;;;;;5.68;2.30;;;;;;;-1.30;66.73;102985.78;4973702;28;20041;-84
2023/02/13 01:38:24;;;;;;;4.93;2.55;;;;;;;-1.52;66.99;102965.06;4946851;28;20130;-84
2023/02/13 01:40:51;;;;;;;6.77;2.97;;;;;;;-1.42;67.04;102976.34;4964454;28;20488;-83
2023/02/13 01:43:18;;;;;;;5.15;2.70;;;;;;;-1.49;67.11;102991.38;4955365;28;20037;-83
2023/02/13 01:45:46;;;;;;;6.63;3.00;;;;;;;-1.46;67.16;103000.16;4955403;28;20122;-81
2023/02/13 01:48:16;;;;;;;5.57;2.90;;;;;;;-1.59;67.16;102981.91;4968424;28;20046;-84
2023/02/13 01:50:49;;;;;;;4.55;2.58;;;;;;;-1.65;67.74;102999.59;4955612;28;20038;-83
2023/02/13 01:53:26;;;;;;;5.45;3.00;;;;;;;-1.65;67.76;102999.59;4938401;28;20035;-81
2023/02/13 01:56:05;;;;;;;5.95;2.90;;;;;;;-1.62;67.66;103000.41;4939372;28;20117;-84
2023/02/13 01:58:32;;;;;;;5.38;3.03;;;;;;;-1.73;67.95;102978.63;4947222;28;20133;-83
2023/02/13 02:01:00;;;;;;;6.80;2.90;;;;;;;-1.72;68.08;102993.53;4958625;28;20030;-85
2023/02/13 02:03:26;;;;;;;7.15;3.05;;;;;;;-1.72;68.06;103004.97;4968794;28;20038;-84
2023/02/13 02:05:51;;;;;;;6.60;3.17;;;;;;;-1.72;68.24;103004.09;4993155;28;20031;-84
2023/02/13 02:08:19;;;;;;;5.93;2.83;;;;;;;-1.66;67.83;102998.72;4958205;28;20301;-83
2023/02/13 02:10:45;;;;;;;6.72;3.20;;;;;;;-1.89;67.78;102963.94;4969807;28;20038;-82
2023/02/13 02:13:17;;;;;;;5.80;3.00;;;;;;;-1.76;67.46;102976.00;4958042;28;20041;-83
2023/02/13 02:15:42;;;;;;;6.10;2.80;;;;;;;-1.60;67.67;102997.75;4942582;28;20038;-83
2023/02/13 02:18:18;;;;;;;6.35;3.35;;;;;;;-1.71;67.79;103004.06;4946540;28;20430;-80
2023/02/13 02:21:05;;;;;;;6.30;2.65;;;;;;;-1.56;67.54;103008.22;4954429;28;20427;-84
2023/02/13 02:23:45;;;;;;;5.88;2.80;;;;;;;-1.57;67.61;103009.13;4968082;28;20042;-82
2023/02/13 02:26:33;;;;;;;6.55;3.00;;;;;;;-1.54;67.25;103014.34;4990542;28;20054;-82
2023/02/13 02:29:46;;;;;;;4.85;2.78;;;;;;;-1.52;67.33;103009.94;4986872;28;20034;-83
2023/02/13 02:32:26;;;;;;;5.70;2.90;;;;;;;-1.57;67.61;103016.16;4928615;28;20049;-82
2023/02/13 02:34:54;;;;;;;6.18;2.88;;;;;;;-1.63;67.67;103014.50;4993957;28;20041;-82
2023/02/13 02:37:38;;;;;;;5.20;2.78;;;;;;;-1.67;67.75;103010.16;4995905;28;20035;-83
2023/02/13 02:40:26;;;;;;;7.25;3.05;;;;;;;-1.62;67.77;103020.63;4973212;28;20116;-84
2023/02/13 02:43:10;;;;;;;5.32;2.95;;;;;;;-1.71;67.88;103026.91;4972227;28;20042;-83
2023/02/13 02:45:50;;;;;;;7.03;3.00;;;;;;;-1.76;68.15;103023.50;4980052;28;20045;-83
2023/02/13 02:51:31;;;;;;;6.80;3.10;;;;;;;-1.80;68.10;103027.09;4991308;28;20058;-87
2023/02/13 02:57:10;;;;;;;6.70;3.28;;;;;;;-1.91;68.38;103021.97;4980354;28;20141;-84
2023/02/13 03:06:09;;;;;;;7.68;3.53;;;;;;;-2.04;68.33;103001.94;4965023;28;20167;-83
2023/02/13 03:08:07;;;;;;;7.45;3.53;;;;;;;-2.18;68.59;103007.41;4977143;28;20835;-84
2023/02/13 03:13:43;;;;;;;7.20;3.40;;;;;;;-2.01;68.28;103039.69;4976443;28;20300;-82
2023/02/13 03:25:09;;;;;;;9.90;3.63;;;;;;;-1.99;68.35;103022.09;4993715;28;20120;-84
2023/02/13 03:31:27;;;;;;;11.05;4.65;;;;;;;-2.14;68.80;103033.69;4911660;29;20146;-83
2023/02/13 03:33:58;;;;;;;9.38;4.20;;;;;;;-2.25;68.95;103030.34;4990690;28;20576;-84
2023/02/13 03:39:48;;;;;;;8.52;4.07;;;;;;;-2.22;69.03;103032.09;4991276;28;20065;-83
2023/02/13 03:42:32;;;;;;;10.23;4.35;;;;;;;-2.29;69.23;103030.44;4971390;28;20038;-81
2023/02/13 03:47:47;;;;;;;27.27;9.43;;;;;;;-2.37;69.46;103036.63;4967377;28;20057;-80
2023/02/13 03:50:13;;;;;;;24.60;9.93;;;;;;;-2.31;68.99;103040.13;4981470;28;20455;-84
2023/02/13 03:52:53;;;;;;;24.23;8.77;;;;;;;-2.22;68.76;103032.94;4958208;28;20053;-83
2023/02/13 04:01:11;;;;;;;11.15;5.35;;;;;;;-2.19;68.01;103029.41;4944526;28;20133;-86
2023/02/13 04:03:49;;;;;;;8.88;4.47;;;;;;;-2.31;68.45;103024.31;4926335;28;20050;-84
2023/02/13 04:06:20;;;;;;;8.85;4.13;;;;;;;-2.34;68.40;103012.91;4954519;28;20047;-83
2023/02/13 04:08:46;;;;;;;7.20;3.53;;;;;;;-2.15;67.96;103036.38;4954262;28;20042;-86
2023/02/13 04:11:27;;;;;;;6.82;3.78;;;;;;;-2.22;68.23;103046.13;4955919;28;20039;-85
2023/02/13 04:13:59;;;;;;;9.30;3.75;;;;;;;-2.27;68.27;103028.63;4970166;28;20039;-84
2023/02/13 04:16:24;;;;;;;7.00;3.53;;;;;;;-2.24;68.07;103040.00;4970451;28;20106;-83
2023/02/13 04:18:50;;;;;;;8.10;3.67;;;;;;;-2.30;68.01;103018.13;4955181;28;20043;-84
2023/02/13 04:21:15;;;;;;;18.93;4.13;;;;;;;-2.35;68.29;103031.34;4940177;28;20039;-84
2023/02/13 04:23:41;;;;;;;13.37;4.50;;;;;;;-2.29;68.31;103028.66;4940169;28;20042;-82
2023/02/13 04:26:07;;;;;;;14.93;5.97;;;;;;;-2.26;68.34;103038.28;4973872;28;20274;-83
2023/02/13 04:28:33;;;;;;;12.68;6.20;;;;;;;-2.35;68.33;103037.50;4936057;28;20066;-83
2023/02/13 04:30:58;;;;;;;10.50;5.27;;;;;;;-2.34;68.53;103036.63;4939562;28;20484;-83
2023/02/13 04:33:24;;;;;;;9.70;5.33;;;;;;;-2.41;68.41;103032.31;4954497;28;20301;-82
2023/02/13 04:35:50;;;;;;;9.95;4.72;;;;;;;-2.33;68.11;103030.44;4938604;28;20171;-82
2023/02/13 04:38:18;;;;;;;11.68;4.97;;;;;;;-2.31;68.26;103037.47;4935849;28;20461;-83
2023/02/13 04:40:43;;;;;;;11.20;5.07;;;;;;;-2.52;68.69;103026.31;4968793;28;20149;-83
2023/02/13 04:43:11;;;;;;;14.00;5.00;;;;;;;-2.49;68.73;103020.13;4937625;28;20122;-84
2023/02/13 04:45:41;;;;;;;11.85;5.32;;;;;;;-2.58;68.77;103026.38;4947217;28;20062;-83
2023/02/13 04:48:06;;;;;;;10.85;5.18;;;;;;;-2.56;68.71;103029.88;4937643;28;20581;-84
2023/02/13 04:50:33;;;;;;;14.93;4.50;;;;;;;-2.67;69.12;103011.56;4937716;28;20026;-84
2023/02/13 04:53:00;;;;;;;10.77;4.45;;;;;;;-2.64;68.70;103018.56;4940247;28;20046;-84
2023/02/13 04:55:26;;;;;;;9.52;4.60;;;;;;;-2.53;69.01;103032.44;4954631;28;20126;-83
2023/02/13 04:57:53;;;;;;;9.00;4.57;;;;;;;-2.53;69.19;103035.09;4938999;28;20065;-84
2023/02/13 05:00:20;;;;;;;9.50;4.70;;;;;;;-2.68;68.99;103036.16;4937538;28;20075;-85
2023/02/13 05:02:46;;;;;;;11.60;5.20;;;;;;;-2.74;69.57;103040.59;4944656;29;20527;-85
2023/02/13 05:05:15;;;;;;;13.82;5.28;;;;;;;-2.71;69.44;103022.16;4956755;28;20117;-83
2023/02/13 05:07:43;;;;;;;10.60;5.32;;;;;;;-2.72;69.49;103038.84;4972519;28;20031;-81
2023/02/13 05:10:11;;;;;;;14.13;6.70;;;;;;;-2.83;69.80;103031.94;4971717;28;20125;-83
2023/02/13 05:12:36;;;;;;;21.38;10.85;;;;;;;-2.69;69.81;103054.59;4936193;28;20042;-85
2023/02/13 05:15:04;;;;;;;26.43;11.20;;;;;;;-2.67;69.65;103037.91;4939366;28;20045;-84
2023/02/13 05:17:31;;;;;;;19.50;9.15;;;;;;;-2.49;69.30;103057.88;4970465;28;20289;-84
2023/02/13 05:19:58;;;;;;;18.65;8.45;;;;;;;-2.45;69.05;103062.22;4973121;28;20051;-84
2023/02/13 05:25:07;;;;;;;19.90;8.57;;;;;;;-2.34;68.74;103062.09;4980411;28;19913;-86
2023/02/13 05:27:33;;;;;;;20.80;9.70;;;;;;;-2.29;68.44;103067.31;4929654;28;20047;-86
2023/02/13 05:29:58;;;;;;;20.47;9.50;;;;;;;-2.35;68.65;103066.47;4945198;28;20050;-86
2023/02/13 05:32:24;;;;;;;29.80;11.93;;;;;;;-2.43;68.77;103047.28;4979049;28;20039;-86
2023/02/13 05:34:51;;;;;;;32.55;12.32;;;;;;;-2.43;69.28;103042.00;4962698;28;20309;-87
2023/02/13 05:37:24;;;;;;;25.02;11.35;;;;;;;-2.37;69.18;103063.00;4941305;29;20160;-87
2023/02/13 05:39:53;;;;;;;26.00;11.80;;;;;;;-2.38;68.57;103049.84;4972107;28;20352;-86
2023/02/13 05:42:19;;;;;;;22.00;11.30;;;;;;;-2.38;68.45;103039.31;4961956;28;20047;-88
2023/02/13 05:44:46;;;;;;;28.15;12.27;;;;;;;-2.30;68.43;103058.50;4919859;28;20133;-86
2023/02/13 05:47:12;;;;;;;30.40;11.60;;;;;;;-2.43;68.95;103054.31;4958603;28;20050;-87
2023/02/13 05:49:39;;;;;;;30.33;12.07;;;;;;;-2.43;68.93;103042.00;4942714;29;20116;-85
2023/02/13 05:52:05;;;;;;;34.78;14.43;;;;;;;-2.31;68.83;103071.72;4954688;28;20058;-87
2023/02/13 05:54:33;;;;;;;36.05;14.27;;;;;;;-2.24;68.42;103089.22;4963191;28;20080;-88
2023/02/13 05:57:00;;;;;;;29.42;13.85;;;;;;;-2.34;68.75;103068.25;4946604;28;20086;-86
2023/02/13 05:59:30;;;;;;;36.25;15.25;;;;;;;-1.28;67.49;103065.81;4983870;28;20069;-86
2023/02/13 06:01:57;;;;;;;38.47;15.02;;;;;;;1.34;60.33;103059.13;4984712;28;20038;-87
2023/02/13 06:04:27;;;;;;;33.70;13.70;;;;;;;3.46;53.88;103036.31;4968674;28;20963;-84
2023/02/13 06:06:52;;;;;;;27.02;13.90;;;;;;;5.05;47.76;103042.34;4980254;28;20052;-85
2023/02/13 06:09:18;;;;;;;35.83;15.73;;;;;;;6.67;44.28;103056.19;4960208;28;20046;-86
2023/02/13 06:11:46;;;;;;;35.10;15.43;;;;;;;8.02;40.50;103057.06;4975518;28;20042;-86
2023/02/13 06:14:12;;;;;;;36.35;15.65;;;;;;;9.34;38.37;103049.38;4977758;28;20066;-84
2023/02/13 06:16:40;;;;;;;28.92;15.95;;;;;;;10.56;35.13;103042.47;4981074;28;20027;-86
2023/02/13 06:19:08;;;;;;;33.47;16.77;;;;;;;11.70;32.31;103045.34;4981694;28;20113;-85
2023/02/13 06:21:39;;;;;;;43.22;17.58;;;;;;;12.36;30.74;103044.13;4988915;28;20038;-84
2023/02/13 06:24:05;;;;;;;36.50;16.73;;;;;;;13.05;29.30;103027.19;4994241;28;20053;-83
2023/02/13 06:26:30;;;;;;;;;;;;;;;13.89;28.31;103052.09;4989555;28;20049;-86
2023/02/13 06:28:59;;;;;;;43.42;23.15;;;;;;;14.15;27.48;103033.72;5002562;28;19913;-88
2023/02/13 06:31:41;;;;;;;36.45;17.40;;;;;;;14.58;26.63;103038.28;5003081;28;20451;-80
2023/02/13 06:34:08;;;;;;;32.08;16.20;;;;;;;15.45;25.98;103043.41;4997773;28;20134;-86
2023/02/13 06:36:37;;;;;;;35.17;16.40;;;;;;;16.40;24.74;103056.59;4993395;28;20042;-82
2023/02/13 06:39:02;;;;;;;30.15;16.02;;;;;;;17.21;23.56;103053.59;4962552;28;20062;-85
2023/02/13 06:41:30;;;;;;;41.35;15.93;;;;;;;17.68;22.48;103036.41;4987645;28;20048;-84
2023/02/13 06:44:00;;;;;;;34.42;17.48;;;;;;;18.14;22.00;103049.06;4957168;28;20042;-81
2023/02/13 06:46:26;;;;;;;47.90;18.17;;;;;;;18.60;21.61;103043.56;4989769;28;20535;-82
2023/02/13 06:48:51;;;;;;;;;;;;;;;19.02;20.76;103042.91;4974804;28;20057;-81
2023/02/13 06:51:25;;;;;;;;;;;;;;;19.25;20.73;103054.16;4972454;28;19926;-90
2023/02/13 06:53:50;;;;;;;31.70;18.48;;;;;;;19.58;20.40;103044.28;4969068;28;19922;-75
2023/02/13 06:56:17;;;;;;;;;;;;;;;20.04;19.74;103043.97;4962572;28;20069;-79
2023/02/13 06:58:45;;;;;;;45.35;20.10;;;;;;;19.65;20.11;103049.94;4972526;28;20335;-78
2023/02/13 07:01:14;;;;;;;49.83;20.70;;;;;;;20.17;20.29;103038.06;4979286;28;20037;-82
2023/02/13 07:03:40;;;;;;;35.03;19.60;;;;;;;19.11;20.58;103036.50;4971854;28;20078;-87
2023/02/13 07:06:05;;;;;;;;;;;;;;;19.44;20.34;103049.50;4980694;28;20035;-83
2023/02/13 07:08:31;;;;;;;;;;;;;;;19.56;20.12;103056.38;4956388;28;20028;-83
2023/02/13 07:10:57;;;;;;;;;;;;;;;19.68;20.05;103051.50;4971238;28;19918;-85
2023/02/13 07:13:24;;;;;;;30.60;16.67;;;;;;;19.25;20.51;103048.69;4963824;28;19997;-85
2023/02/13 07:15:51;;;;;;;30.85;17.48;;;;;;;18.66;20.66;103051.13;4978208;28;20051;-85
2023/02/13 07:18:19;;;;;;;31.83;16.45;;;;;;;17.35;21.95;103055.00;4926927;28;20074;-84
2023/02/13 07:20:45;;;;;;;32.75;15.63;;;;;;;16.67;22.93;103047.75;4951888;28;20039;-84
2023/02/13 07:23:11;;;;;;;41.50;17.17;;;;;;;15.94;23.38;103054.50;4983956;28;20173;-86
2023/02/13 07:25:38;;;;;;;38.00;17.30;;;;;;;16.67;23.24;103064.06;4985955;28;20050;-86
2023/02/13 07:28:04;;;;;;;32.60;16.38;;;;;;;17.21;22.49;103050.03;4968271;28;20093;-81
2023/02/13 07:30:30;;;;;;;33.35;15.32;;;;;;;17.01;22.65;103049.19;4957000;28;20046;-75
2023/02/13 07:33:00;;;;;;;27.05;14.93;;;;;;;16.75;22.96;103036.16;4946435;28;20125;-85
2023/02/13 07:35:25;;;;;;;39.95;14.68;;;;;;;15.81;24.07;103047.47;4957699;28;20161;-79
2023/02/13 07:37:54;;;;;;;28.63;14.20;;;;;;;15.81;24.08;103044.75;4958227;28;20118;-88
2023/02/13 07:40:19;;;;;;;28.98;12.27;;;;;;;17.13;23.08;103050.72;4951902;28;20393;-83
2023/02/13 07:42:45;;;;;;;24.48;11.93;;;;;;;17.66;21.77;103049.28;4967573;28;20066;-82
2023/02/13 07:45:10;;;;;;;;;;;;;;;18.39;21.54;103035.69;4945232;28;20046;-77
2023/02/13 07:47:36;;;;;;;;;;;;;;;18.89;20.97;103028.84;4961369;28;19925;-84
2023/02/13 07:50:04;;;;;;;;;;;;;;;19.45;20.35;103030.22;4959561;28;20342;-78
2023/02/13 07:52:42;;;;;;;30.30;12.43;;;;;;;20.07;19.92;103021.81;4975966;28;19945;-84
2023/02/13 07:55:10;;;;;;;30.00;12.63;;;;;;;19.95;19.70;103014.97;4944501;28;20038;-82
2023/02/13 07:57:35;;;;;;;29.10;13.00;;;;;;;18.24;21.26;102980.94;4958257;28;20511;-83
2023/02/13 08:00:01;;;;;;;;;;;;;;;17.83;22.00;103018.59;4974894;28;20043;-86
2023/02/13 08:02:26;;;;;;;29.02;11.77;;;;;;;16.73;23.62;103023.72;4996050;28;19964;-84
2023/02/13 08:04:52;;;;;;;;;;;;;;;16.07;24.38;103016.28;4963277;28;20606;-84
2023/02/13 08:07:18;;;;;;;19.10;10.27;;;;;;;13.82;27.26;103018.41;4990422;28;20080;-88
2023/02/13 08:12:30;;;;;;;18.30;10.30;;;;;;;12.31;29.38;103030.09;4999765;28;20118;-86
2023/02/13 08:14:55;;;;;;;28.40;10.10;;;;;;;11.43;30.95;103032.88;4994381;28;20034;-83
2023/02/13 08:17:21;;;;;;;19.63;10.23;;;;;;;10.59;32.24;103026.13;4981527;28;20380;-85
2023/02/13 08:19:46;;;;;;;16.35;9.82;;;;;;;10.04;33.42;103041.34;4962985;28;20049;-86
2023/02/13 08:22:13;;;;;;;19.50;10.13;;;;;;;10.05;33.22;103032.34;5000697;28;20042;-86
2023/02/13 08:24:39;;;;;;;23.25;11.05;;;;;;;9.87;33.92;103029.00;4964976;28;20044;-82
2023/02/13 08:27:04;;;;;;;26.88;11.50;;;;;;;10.63;33.03;103041.09;4975308;28;20038;-83
2023/02/13 08:29:30;;;;;;;21.83;11.48;;;;;;;10.75;32.74;103040.25;4966469;28;20038;-86
2023/02/13 08:31:56;;;;;;;21.33;11.00;;;;;;;10.22;33.31;103041.97;4998968;28;20046;-83
2023/02/13 08:34:21;;;;;;;;;;;;;;;10.57;32.87;103039.66;4990981;28;20046;-83
2023/02/13 08:36:47;;;;;;;26.10;11.90;;;;;;;10.86;32.43;103023.38;4991669;28;19988;-85
2023/02/13 08:39:15;;;;;;;28.02;11.43;;;;;;;11.13;31.65;103019.75;4978184;28;20042;-85
2023/02/13 08:41:42;;;;;;;19.90;10.65;;;;;;;10.87;31.29;103029.63;4959981;28;20443;-81
2023/02/13 08:44:09;;;;;;;30.90;11.30;;;;;;;11.82;30.22;103018.41;4976246;28;20080;-83
2023/02/13 08:46:34;;;;;;;22.58;10.80;;;;;;;11.43;30.26;103027.50;4947405;28;20046;-84
2023/02/13 08:49:00;;;;;;;21.25;9.27;;;;;;;11.39;30.45;103036.75;4992598;28;20045;-78
2023/02/13 08:51:25;;;;;;;21.05;9.90;;;;;;;11.19;30.82;103039.03;4984489;28;20034;-80
2023/02/13 08:53:51;;;;;;;18.15;9.07;;;;;;;10.80;30.93;103022.94;4975122;28;20124;-84
2023/02/13 08:56:17;;;;;;;20.67;9.18;;;;;;;11.12;30.52;103021.59;4959300;28;20561;-82
2023/02/13 08:58:42;;;;;;;20.00;9.13;;;;;;;11.02;31.61;103014.25;4956987;28;20044;-79
2023/02/13 09:01:08;;;;;;;24.10;9.45;;;;;;;11.12;31.50;103026.09;4987091;28;20031;-78
2023/02/13 09:03:34;;;;;;;16.70;8.27;;;;;;;12.15;29.18;103016.03;4973385;28;20110;-78
2023/02/13 09:06:00;;;;;;;13.48;7.30;;;;;;;12.00;28.72;103018.03;4969298;28;20128;-81
2023/02/13 09:08:27;;;;;;;12.10;7.38;;;;;;;12.18;28.57;102992.41;4939587;28;20039;-84
2023/02/13 09:11:00;;;;;;;20.15;8.10;;;;;;;12.73;28.41;103006.25;4964778;28;20034;-79
2023/02/13 09:13:33;;;;;;;12.65;7.60;;;;;;;12.86;27.53;103008.88;4973299;28;20124;-90
2023/02/13 09:16:07;;;;;;;21.45;8.00;;;;;;;14.09;26.25;102991.81;4979527;28;20077;-81
2023/02/13 09:18:46;;;;;;;;;;;;;;;;;;;;;
2023/02/13 09:21:12;;;;;;;14.65;7.43;;;;;;;14.45;25.54;102988.84;4960323;28;20102;-82
2023/02/13 09:23:39;;;;;;;17.45;7.35;;;;;;;14.76;25.29;102984.41;4975390;28;20152;-89
2023/02/13 09:26:07;;;;;;;20.80;9.00;;;;;;;14.82;25.33;102985.72;4990038;28;20483;-83
2023/02/13 09:28:35;;;;;;;20.73;8.00;;;;;;;15.39;24.54;102977.06;4987763;28;20038;-87
2023/02/13 09:31:17;;;;;;;17.20;8.38;;;;;;;15.73;24.21;102979.50;4971558;28;20050;-84
2023/02/13 09:33:47;;;;;;;16.55;7.75;;;;;;;15.53;24.22;102980.41;4989440;28;20213;-82
2023/02/13 09:36:19;;;;;;;12.30;7.53;;;;;;;16.15;23.69;102978.41;4966784;28;20046;-90
2023/02/13 09:38:53;;;;;;;15.02;7.53;;;;;;;17.13;22.20;102936.56;4980430;28;20145;-92
2023/02/13 09:41:40;;;;;;;21.83;8.15;;;;;;;18.22;20.70;102941.25;4954114;28;20053;-84
2023/02/13 09:44:33;;;;;;;24.33;8.20;;;;;;;18.84;20.60;102939.38;4991457;28;20038;-84
2023/02/13 09:47:27;;;;;;;15.90;8.00;;;;;;;19.52;19.43;102946.72;4983358;28;20057;-87
2023/02/13 09:50:17;;;;;;;25.13;8.10;;;;;;;19.50;19.48;102921.50;4981122;28;20132;-83
2023/02/13 09:52:50;;;;;;;22.15;8.82;;;;;;;19.75;19.30;102927.03;4974051;28;20041;-83
2023/02/13 09:55:24;;;;;;;18.08;8.38;;;;;;;19.56;18.89;102903.59;4986214;28;20045;-88
2023/02/13 09:58:02;;;;;;;15.05;8.25;;;;;;;20.20;17.99;102933.94;4960789;28;20042;-82
2023/02/13 10:00:35;;;;;;;13.52;7.32;;;;;;;19.40;18.37;102926.22;4968605;28;20090;-87
2023/02/13 10:03:29;;;;;;;10.88;6.90;;;;;;;19.18;18.72;102923.06;4982999;28;20035;-83
2023/02/13 10:05:57;;;;;;;15.43;7.10;;;;;;;18.95;19.05;102922.75;4970676;28;20054;-81
2023/02/13 10:08:26;;;;;;;13.48;7.47;;;;;;;18.61;19.43;102910.91;4956081;28;20118;-85
2023/02/13 10:10:57;;;;;;;13.90;8.90;;;;;;;19.63;18.33;102899.19;4984530;28;20034;-85
2023/02/13 10:13:45;;;;;;;19.15;7.88;;;;;;;19.50;18.21;102904.25;4965502;28;20039;-87
2023/02/13 10:16:15;;;;;;;11.40;6.40;;;;;;;19.32;17.72;102893.47;4984059;28;20142;-88
2023/02/13 10:18:53;;;;;;;10.88;6.40;;;;;;;18.81;18.24;102907.00;4942972;29;20057;-90
2023/02/13 10:21:23;;;;;;;16.23;7.03;;;;;;;19.73;18.19;102893.59;4965705;28;20046;-85
2023/02/13 10:23:53;;;;;;;15.15;7.32;;;;;;;21.25;16.61;102882.84;4951417;28;20050;-85
2023/02/13 10:26:22;;;;;;;14.05;6.70;;;;;;;23.27;15.41;102884.25;4960756;28;20121;-86
2023/02/13 10:30:03;;;;;;;14.77;7.63;;;;;;;23.86;14.43;102882.38;4941652;28;20054;-85
2023/02/13 10:31:37;;;;;;;11.77;6.90;;;;;;;24.17;14.40;102862.81;4956591;28;20031;-85
2023/02/13 10:34:06;;;;;;;13.13;7.45;;;;;;;25.30;13.37;102871.81;4925629;28;20122;-85
2023/02/13 10:36:38;;;;;;;11.25;7.10;;;;;;;25.24;13.67;102872.66;4958142;28;20106;-88
2023/02/13 10:39:06;;;;;;;12.70;7.68;;;;;;;26.78;12.68;102869.00;4943029;28;20031;-87
2023/02/13 10:42:13;;;;;;;11.60;7.35;;;;;;;27.22;12.07;102861.88;4960092;28;20371;-86
2023/02/13 10:44:59;;;;;;;16.33;8.50;;;;;;;27.88;12.05;102865.31;4945912;28;20066;-86
2023/02/13 10:47:33;;;;;;;14.73;8.75;;;;;;;27.97;11.88;102862.06;4976070;28;20041;-87
2023/02/13 10:50:21;;;;;;;23.60;9.00;;;;;;;28.03;11.54;102860.31;4952161;28;20046;-85
2023/02/13 10:52:52;;;;;;;16.17;8.07;;;;;;;28.15;11.75;102835.56;4959549;28;20039;-88
2023/02/13 10:55:42;;;;;;;14.45;7.78;;;;;;;28.24;11.52;102850.78;4974392;28;20035;-86
2023/02/13 10:58:18;;;;;;;22.65;8.93;;;;;;;28.35;11.31;102829.81;4977255;28;20141;-88
2023/02/13 11:01:38;;;;;;;20.20;8.80;;;;;;;28.66;11.05;102837.22;4966440;28;20093;-87
2023/02/13 11:04:11;;;;;;;11.25;9.20;;;;;;;27.60;11.69;102835.31;4881586;29;20041;-84
2023/02/13 11:06:43;;;;;;;17.90;8.98;;;;;;;27.39;11.61;102831.81;4974994;28;20058;-88
2023/02/13 11:09:08;;;;;;;18.73;8.82;;;;;;;26.87;12.38;102819.94;4968530;29;20069;-85
2023/02/13 11:11:37;;;;;;;16.73;9.02;;;;;;;26.78;12.17;102826.75;4962330;28;20035;-86
2023/02/13 11:14:19;;;;;;;15.65;9.48;;;;;;;26.22;12.38;102820.72;4945492;28;20508;-88
2023/02/13 11:17:11;;;;;;;21.85;9.93;;;;;;;25.49;13.24;102815.94;4979693;28;20085;-85
2023/02/13 11:19:40;;;;;;;15.50;8.93;;;;;;;25.72;12.77;102820.22;4940667;29;20457;-86
2023/02/13 11:22:15;;;;;;;18.70;9.98;;;;;;;25.36;13.58;102820.59;4955227;28;20045;-85
2023/02/13 11:24:41;;;;;;;18.02;9.45;;;;;;;25.26;13.08;102816.34;4915529;28;20077;-85
2023/02/13 11:27:12;;;;;;;17.92;9.77;;;;;;;24.47;13.76;102794.78;4972502;28;20078;-86
2023/02/13 11:30:01;;;;;;;15.63;8.45;;;;;;;24.63;13.44;102812.81;4939774;29;20047;-85
2023/02/13 11:32:48;;;;;;;10.85;8.55;;;;;;;24.16;13.86;102796.03;4951927;28;20050;-87
2023/02/13 11:35:33;;;;;;;17.23;8.38;;;;;;;23.09;15.01;102799.59;4967907;28;20038;-84
2023/02/13 11:38:21;;;;;;;15.50;9.02;;;;;;;22.53;15.19;102793.75;4958087;28;20042;-84
2023/02/13 11:41:12;;;;;;;13.48;9.32;;;;;;;22.04;16.92;102797.81;4978426;28;20126;-84
2023/02/13 11:44:00;;;;;;;25.52;9.60;;;;;;;22.17;16.84;102785.38;4970140;28;20076;-84
2023/02/13 11:46:45;;;;;;;14.77;9.02;;;;;;;22.54;16.24;102782.59;4944737;28;20836;-79
2023/02/13 11:49:22;;;;;;;18.92;9.73;;;;;;;22.55;16.33;102781.56;4941707;28;20035;-79
2023/02/13 11:52:12;;;;;;;17.92;10.68;;;;;;;22.38;16.36;102782.78;4959816;28;20042;-80
2023/02/13 11:54:38;;;;;;;18.30;10.18;;;;;;;22.85;15.53;102773.31;4974054;28;20069;-82
2023/02/13 11:57:23;;;;;;;15.45;7.95;;;;;;;19.91;19.37;102787.84;4955681;28;20168;-83
2023/02/13 11:59:51;;;;;;;12.35;6.55;;;;;;;17.73;22.41;102778.34;4969128;28;20121;-83
2023/02/13 12:02:25;;;;;;;13.77;6.22;;;;;;;18.37;22.31;102778.16;4991736;28;20089;-81
2023/02/13 12:05:15;;;;;;;10.52;6.20;;;;;;;18.43;21.73;102762.03;4991331;28;20049;-83
2023/02/13 12:07:41;;;;;;;15.85;5.97;;;;;;;17.91;22.83;102775.63;4991175;28;20407;-80
2023/02/13 12:10:16;;;;;;;;;;;;;;;16.77;24.49;102776.13;4974704;28;20034;-82
2023/02/13 12:13:04;;;;;;;9.63;5.75;;;;;;;16.34;24.91;102776.69;4976934;28;19925;-75
2023/02/13 12:15:32;;;;;;;10.73;5.68;;;;;;;15.49;26.16;102772.94;4985639;28;20042;-76
2023/02/13 12:18:18;;;;;;;11.23;5.68;;;;;;;15.28;26.99;102746.81;4956263;28;20053;-78
2023/02/13 12:21:03;;;;;;;9.02;5.70;;;;;;;15.67;26.55;102770.38;4974177;28;20033;-82
2023/02/13 12:23:56;;;;;;;12.18;6.22;;;;;;;13.93;28.48;102777.75;4959148;28;20034;-81
2023/02/13 12:26:44;;;;;;;10.05;6.25;;;;;;;13.21;29.50;102770.25;4971760;28;20042;-79